sensor_id;sensor_type;location;lat;lon;timestamp;P1;durP1;ratioP1;P2;durP2;ratioP2
77160;SDS011;66135;0.000;0.000;2023-07-31T00:01:10;1.40;;;1.13;;
77160;SDS011;66135;0.000;0.000;2023-07-31T00:03:35;1.50;;;0.70;;
77160;SDS011;66135;0.000;0.000;2023-07-31T00:06:00;1.30;;;1.10;;
77160;SDS011;66135;0.000;0.000;2023-07-31T00:08:26;2.20;;;1.25;;
77160;SDS011;66135;0.000;0.000;2023-07-31T00:10:52;3.40;;;1.30;;
77160;SDS011;66135;0.000;0.000;2023-07-31T00:13:17;3.05;;;0.90;;
77160;SDS011;66135;0.000;0.000;2023-07-31T00:15:43;2.65;;;1.55;;
77160;SDS011;66135;0.000;0.000;2023-07-31T00:18:08;2.13;;;1.02;;
77160;SDS011;66135;0.000;0.000;2023-07-31T00:20:34;2.45;;;1.33;;
77160;SDS011;66135;0.000;0.000;2023-07-31T00:22:59;1.92;;;1.05;;
77160;SDS011;66135;0.000;0.000;2023-07-31T00:25:24;2.78;;;1.00;;
77160;SDS011;66135;0.000;0.000;2023-07-31T00:27:50;0.98;;;0.73;;
77160;SDS011;66135;0.000;0.000;2023-07-31T00:30:15;2.30;;;1.33;;
77160;SDS011;66135;0.000;0.000;2023-07-31T00:32:41;1.88;;;1.27;;
77160;SDS011;66135;0.000;0.000;2023-07-31T00:35:06;3.45;;;1.45;;
77160;SDS011;66135;0.000;0.000;2023-07-31T00:37:32;1.55;;;0.85;;
77160;SDS011;66135;0.000;0.000;2023-07-31T00:39:57;1.48;;;0.30;;
77160;SDS011;66135;0.000;0.000;2023-07-31T00:42:23;1.73;;;0.98;;
77160;SDS011;66135;0.000;0.000;2023-07-31T00:44:49;2.30;;;1.33;;
77160;SDS011;66135;0.000;0.000;2023-07-31T00:47:14;2.90;;;1.00;;
77160;SDS011;66135;0.000;0.000;2023-07-31T00:49:40;1.73;;;0.98;;
77160;SDS011;66135;0.000;0.000;2023-07-31T00:52:05;1.42;;;1.13;;
77160;SDS011;66135;0.000;0.000;2023-07-31T00:54:32;3.28;;;1.77;;
77160;SDS011;66135;0.000;0.000;2023-07-31T00:56:57;1.15;;;0.47;;
77160;SDS011;66135;0.000;0.000;2023-07-31T00:59:23;1.83;;;0.52;;
77160;SDS011;66135;0.000;0.000;2023-07-31T01:01:48;1.40;;;0.75;;
77160;SDS011;66135;0.000;0.000;2023-07-31T01:04:14;2.50;;;0.85;;
77160;SDS011;66135;0.000;0.000;2023-07-31T01:09:37;1.50;;;0.95;;
77160;SDS011;66135;0.000;0.000;2023-07-31T01:12:10;1.77;;;1.10;;
77160;SDS011;66135;0.000;0.000;2023-07-31T01:14:39;1.48;;;1.35;;
77160;SDS011;66135;0.000;0.000;2023-07-31T01:17:04;1.15;;;0.28;;
77160;SDS011;66135;0.000;0.000;2023-07-31T01:19:30;2.33;;;1.42;;
77160;SDS011;66135;0.000;0.000;2023-07-31T01:25:00;2.33;;;1.02;;
77160;SDS011;66135;0.000;0.000;2023-07-31T01:27:53;2.70;;;1.23;;
77160;SDS011;66135;0.000;0.000;2023-07-31T01:30:28;1.83;;;1.60;;
77160;SDS011;66135;0.000;0.000;2023-07-31T01:32:58;1.48;;;0.95;;
77160;SDS011;66135;0.000;0.000;2023-07-31T01:35:24;2.65;;;1.00;;
77160;SDS011;66135;0.000;0.000;2023-07-31T01:37:52;2.25;;;1.20;;
77160;SDS011;66135;0.000;0.000;2023-07-31T01:40:19;1.27;;;0.32;;
77160;SDS011;66135;0.000;0.000;2023-07-31T01:42:44;2.60;;;1.23;;
77160;SDS011;66135;0.000;0.000;2023-07-31T01:45:09;1.67;;;0.43;;
77160;SDS011;66135;0.000;0.000;2023-07-31T01:47:35;1.55;;;0.85;;
77160;SDS011;66135;0.000;0.000;2023-07-31T01:50:00;2.28;;;1.60;;
77160;SDS011;66135;0.000;0.000;2023-07-31T01:52:26;1.90;;;1.13;;
77160;SDS011;66135;0.000;0.000;2023-07-31T01:54:51;4.00;;;1.58;;
77160;SDS011;66135;0.000;0.000;2023-07-31T01:57:17;2.00;;;1.17;;
77160;SDS011;66135;0.000;0.000;2023-07-31T01:59:42;1.67;;;1.38;;
77160;SDS011;66135;0.000;0.000;2023-07-31T02:02:07;1.15;;;1.05;;
77160;SDS011;66135;0.000;0.000;2023-07-31T02:04:33;1.40;;;0.60;;
77160;SDS011;66135;0.000;0.000;2023-07-31T02:06:59;1.50;;;1.00;;
77160;SDS011;66135;0.000;0.000;2023-07-31T02:09:24;2.50;;;1.05;;
77160;SDS011;66135;0.000;0.000;2023-07-31T02:11:50;1.52;;;0.40;;
77160;SDS011;66135;0.000;0.000;2023-07-31T02:14:15;1.58;;;1.17;;
77160;SDS011;66135;0.000;0.000;2023-07-31T02:16:40;1.35;;;0.43;;
77160;SDS011;66135;0.000;0.000;2023-07-31T02:19:07;2.22;;;1.08;;
77160;SDS011;66135;0.000;0.000;2023-07-31T02:21:33;2.00;;;1.20;;
77160;SDS011;66135;0.000;0.000;2023-07-31T02:23:58;2.47;;;1.40;;
77160;SDS011;66135;0.000;0.000;2023-07-31T02:26:23;1.77;;;1.40;;
77160;SDS011;66135;0.000;0.000;2023-07-31T02:28:49;1.98;;;0.60;;
77160;SDS011;66135;0.000;0.000;2023-07-31T02:31:14;1.92;;;1.40;;
77160;SDS011;66135;0.000;0.000;2023-07-31T02:33:40;1.55;;;0.98;;
77160;SDS011;66135;0.000;0.000;2023-07-31T02:36:05;1.95;;;1.15;;
77160;SDS011;66135;0.000;0.000;2023-07-31T02:38:30;1.65;;;0.80;;
77160;SDS011;66135;0.000;0.000;2023-07-31T02:40:56;2.47;;;1.30;;
77160;SDS011;66135;0.000;0.000;2023-07-31T02:43:21;2.20;;;1.17;;
77160;SDS011;66135;0.000;0.000;2023-07-31T02:45:50;2.92;;;1.40;;
77160;SDS011;66135;0.000;0.000;2023-07-31T02:48:17;1.42;;;0.70;;
77160;SDS011;66135;0.000;0.000;2023-07-31T02:50:42;1.20;;;1.02;;
77160;SDS011;66135;0.000;0.000;2023-07-31T02:53:07;1.35;;;0.75;;
77160;SDS011;66135;0.000;0.000;2023-07-31T02:55:33;2.35;;;1.17;;
77160;SDS011;66135;0.000;0.000;2023-07-31T02:57:58;1.67;;;1.27;;
77160;SDS011;66135;0.000;0.000;2023-07-31T03:00:23;1.80;;;1.45;;
77160;SDS011;66135;0.000;0.000;2023-07-31T03:02:49;2.08;;;1.27;;
77160;SDS011;66135;0.000;0.000;2023-07-31T03:05:14;1.92;;;1.17;;
77160;SDS011;66135;0.000;0.000;2023-07-31T03:07:40;1.48;;;1.10;;
77160;SDS011;66135;0.000;0.000;2023-07-31T03:10:05;2.55;;;0.80;;
77160;SDS011;66135;0.000;0.000;2023-07-31T03:12:31;2.53;;;1.55;;
77160;SDS011;66135;0.000;0.000;2023-07-31T03:14:57;1.15;;;0.73;;
77160;SDS011;66135;0.000;0.000;2023-07-31T11:55:41;1.95;;;1.50;;
77160;SDS011;66135;0.000;0.000;2023-07-31T11:58:07;2.30;;;1.85;;
77160;SDS011;66135;0.000;0.000;2023-07-31T12:00:33;3.75;;;1.58;;
77160;SDS011;66135;0.000;0.000;2023-07-31T12:02:59;4.85;;;1.90;;
77160;SDS011;66135;0.000;0.000;2023-07-31T12:05:24;3.03;;;1.58;;
77160;SDS011;66135;0.000;0.000;2023-07-31T12:07:51;4.70;;;1.88;;
77160;SDS011;66135;0.000;0.000;2023-07-31T12:10:27;3.30;;;2.17;;
77160;SDS011;66135;0.000;0.000;2023-07-31T12:12:58;5.50;;;2.08;;
77160;SDS011;66135;0.000;0.000;2023-07-31T12:15:38;4.38;;;2.42;;
77160;SDS011;66135;0.000;0.000;2023-07-31T12:18:24;3.53;;;1.83;;
77160;SDS011;66135;0.000;0.000;2023-07-31T12:20:56;3.72;;;1.83;;
77160;SDS011;66135;0.000;0.000;2023-07-31T12:23:30;3.30;;;1.90;;
77160;SDS011;66135;0.000;0.000;2023-07-31T12:26:15;3.50;;;2.03;;
77160;SDS011;66135;0.000;0.000;2023-07-31T12:28:48;3.72;;;1.95;;
77160;SDS011;66135;0.000;0.000;2023-07-31T12:31:16;2.95;;;1.95;;
77160;SDS011;66135;0.000;0.000;2023-07-31T12:33:46;3.17;;;1.75;;
77160;SDS011;66135;0.000;0.000;2023-07-31T12:36:14;3.97;;;2.65;;
77160;SDS011;66135;0.000;0.000;2023-07-31T12:38:43;6.63;;;2.53;;
77160;SDS011;66135;0.000;0.000;2023-07-31T12:41:09;2.47;;;1.63;;
77160;SDS011;66135;0.000;0.000;2023-07-31T12:43:36;2.92;;;2.10;;
77160;SDS011;66135;0.000;0.000;2023-07-31T12:46:02;2.78;;;2.08;;
77160;SDS011;66135;0.000;0.000;2023-07-31T12:48:28;3.67;;;1.98;;
77160;SDS011;66135;0.000;0.000;2023-07-31T12:50:54;3.55;;;1.90;;
77160;SDS011;66135;0.000;0.000;2023-07-31T12:53:20;3.83;;;2.00;;
77160;SDS011;66135;0.000;0.000;2023-07-31T12:55:45;2.35;;;2.03;;
77160;SDS011;66135;0.000;0.000;2023-07-31T12:58:11;4.63;;;1.95;;
77160;SDS011;66135;0.000;0.000;2023-07-31T13:00:37;3.42;;;1.63;;
77160;SDS011;66135;0.000;0.000;2023-07-31T13:03:02;2.53;;;1.60;;
77160;SDS011;66135;0.000;0.000;2023-07-31T13:05:28;2.10;;;1.63;;
77160;SDS011;66135;0.000;0.000;2023-07-31T13:07:54;3.90;;;2.03;;
77160;SDS011;66135;0.000;0.000;2023-07-31T13:10:19;2.78;;;1.90;;
77160;SDS011;66135;0.000;0.000;2023-07-31T13:12:45;3.50;;;2.95;;
77160;SDS011;66135;0.000;0.000;2023-07-31T13:15:11;4.03;;;3.25;;
77160;SDS011;66135;0.000;0.000;2023-07-31T13:17:37;3.58;;;1.90;;
77160;SDS011;66135;0.000;0.000;2023-07-31T13:20:03;2.83;;;1.50;;
77160;SDS011;66135;0.000;0.000;2023-07-31T13:22:28;2.58;;;2.10;;
77160;SDS011;66135;0.000;0.000;2023-07-31T13:24:54;3.22;;;1.90;;
77160;SDS011;66135;0.000;0.000;2023-07-31T13:27:19;2.38;;;1.67;;
77160;SDS011;66135;0.000;0.000;2023-07-31T13:29:46;2.72;;;2.00;;
77160;SDS011;66135;0.000;0.000;2023-07-31T13:32:13;2.15;;;1.92;;
77160;SDS011;66135;0.000;0.000;2023-07-31T13:34:39;2.83;;;2.03;;
77160;SDS011;66135;0.000;0.000;2023-07-31T13:37:04;2.60;;;1.77;;
77160;SDS011;66135;0.000;0.000;2023-07-31T13:39:31;3.42;;;1.77;;
77160;SDS011;66135;0.000;0.000;2023-07-31T13:41:57;2.72;;;1.73;;
77160;SDS011;66135;0.000;0.000;2023-07-31T13:44:23;3.15;;;2.10;;
77160;SDS011;66135;0.000;0.000;2023-07-31T13:46:48;3.08;;;2.00;;
77160;SDS011;66135;0.000;0.000;2023-07-31T13:49:14;2.75;;;1.92;;
77160;SDS011;66135;0.000;0.000;2023-07-31T13:51:39;3.67;;;2.08;;
77160;SDS011;66135;0.000;0.000;2023-07-31T13:54:04;2.97;;;1.95;;
77160;SDS011;66135;0.000;0.000;2023-07-31T13:56:31;1.92;;;1.70;;
77160;SDS011;66135;0.000;0.000;2023-07-31T13:58:57;3.65;;;2.80;;
77160;SDS011;66135;0.000;0.000;2023-07-31T14:01:22;3.08;;;2.83;;
77160;SDS011;66135;0.000;0.000;2023-07-31T14:03:48;3.33;;;2.05;;
77160;SDS011;66135;0.000;0.000;2023-07-31T14:06:13;2.03;;;1.80;;
77160;SDS011;66135;0.000;0.000;2023-07-31T14:08:38;2.60;;;2.13;;
77160;SDS011;66135;0.000;0.000;2023-07-31T14:11:04;2.13;;;1.75;;
77160;SDS011;66135;0.000;0.000;2023-07-31T14:13:29;2.25;;;2.03;;
77160;SDS011;66135;0.000;0.000;2023-07-31T14:15:55;3.72;;;2.47;;
77160;SDS011;66135;0.000;0.000;2023-07-31T14:18:20;2.75;;;1.95;;
77160;SDS011;66135;0.000;0.000;2023-07-31T14:20:46;2.70;;;1.70;;
77160;SDS011;66135;0.000;0.000;2023-07-31T14:23:11;3.78;;;2.22;;
77160;SDS011;66135;0.000;0.000;2023-07-31T14:25:36;2.40;;;1.90;;
77160;SDS011;66135;0.000;0.000;2023-07-31T14:28:02;3.08;;;2.35;;
77160;SDS011;66135;0.000;0.000;2023-07-31T14:30:27;3.05;;;2.13;;
77160;SDS011;66135;0.000;0.000;2023-07-31T14:32:53;3.25;;;2.30;;
77160;SDS011;66135;0.000;0.000;2023-07-31T14:35:18;2.30;;;2.13;;
77160;SDS011;66135;0.000;0.000;2023-07-31T14:37:44;3.33;;;2.47;;
77160;SDS011;66135;0.000;0.000;2023-07-31T14:40:11;1.83;;;0.98;;
77160;SDS011;66135;0.000;0.000;2023-07-31T14:42:37;3.33;;;1.77;;
77160;SDS011;66135;0.000;0.000;2023-07-31T14:45:03;1.80;;;1.65;;
77160;SDS011;66135;0.000;0.000;2023-07-31T14:47:30;3.00;;;2.17;;
77160;SDS011;66135;0.000;0.000;2023-07-31T14:49:58;3.63;;;2.05;;
77160;SDS011;66135;0.000;0.000;2023-07-31T14:52:25;2.60;;;2.40;;
77160;SDS011;66135;0.000;0.000;2023-07-31T14:54:50;2.67;;;1.08;;
77160;SDS011;66135;0.000;0.000;2023-07-31T14:57:16;2.22;;;1.60;;
77160;SDS011;66135;0.000;0.000;2023-07-31T14:59:42;4.03;;;1.80;;
77160;SDS011;66135;0.000;0.000;2023-07-31T15:02:08;3.33;;;1.92;;
77160;SDS011;66135;0.000;0.000;2023-07-31T15:04:34;3.08;;;2.13;;
77160;SDS011;66135;0.000;0.000;2023-07-31T15:07:00;3.35;;;2.15;;
77160;SDS011;66135;0.000;0.000;2023-07-31T15:09:25;2.05;;;1.80;;
77160;SDS011;66135;0.000;0.000;2023-07-31T15:11:51;2.50;;;1.67;;
77160;SDS011;66135;0.000;0.000;2023-07-31T15:14:16;2.58;;;2.22;;
77160;SDS011;66135;0.000;0.000;2023-07-31T15:16:42;2.78;;;2.25;;
77160;SDS011;66135;0.000;0.000;2023-07-31T15:19:07;3.60;;;2.20;;
77160;SDS011;66135;0.000;0.000;2023-07-31T15:21:32;3.33;;;2.40;;
77160;SDS011;66135;0.000;0.000;2023-07-31T15:23:58;3.03;;;1.98;;
77160;SDS011;66135;0.000;0.000;2023-07-31T15:26:23;2.35;;;2.10;;
77160;SDS011;66135;0.000;0.000;2023-07-31T15:28:49;2.72;;;1.70;;
77160;SDS011;66135;0.000;0.000;2023-07-31T15:31:20;3.55;;;2.20;;
77160;SDS011;66135;0.000;0.000;2023-07-31T15:33:47;2.72;;;2.33;;
77160;SDS011;66135;0.000;0.000;2023-07-31T15:36:13;3.47;;;1.20;;
77160;SDS011;66135;0.000;0.000;2023-07-31T15:38:38;2.63;;;1.80;;
77160;SDS011;66135;0.000;0.000;2023-07-31T15:41:04;2.67;;;2.28;;
77160;SDS011;66135;0.000;0.000;2023-07-31T15:43:29;2.55;;;1.73;;
77160;SDS011;66135;0.000;0.000;2023-07-31T15:45:55;2.13;;;1.80;;
77160;SDS011;66135;0.000;0.000;2023-07-31T15:48:20;2.65;;;1.83;;
77160;SDS011;66135;0.000;0.000;2023-07-31T15:50:46;2.30;;;1.00;;
77160;SDS011;66135;0.000;0.000;2023-07-31T15:53:11;2.25;;;1.60;;
77160;SDS011;66135;0.000;0.000;2023-07-31T15:55:36;2.50;;;1.77;;
77160;SDS011;66135;0.000;0.000;2023-07-31T15:58:02;2.33;;;1.90;;
77160;SDS011;66135;0.000;0.000;2023-07-31T16:00:27;2.40;;;1.90;;
77160;SDS011;66135;0.000;0.000;2023-07-31T16:02:53;2.65;;;2.17;;
77160;SDS011;66135;0.000;0.000;2023-07-31T16:05:18;2.58;;;1.80;;
77160;SDS011;66135;0.000;0.000;2023-07-31T16:07:43;4.70;;;1.52;;
77160;SDS011;66135;0.000;0.000;2023-07-31T16:10:09;13.13;;;3.10;;
77160;SDS011;66135;0.000;0.000;2023-07-31T16:12:34;9.70;;;3.30;;
77160;SDS011;66135;0.000;0.000;2023-07-31T16:15:00;10.07;;;3.40;;
77160;SDS011;66135;0.000;0.000;2023-07-31T16:17:25;15.32;;;5.03;;
77160;SDS011;66135;0.000;0.000;2023-07-31T16:19:51;18.55;;;6.40;;
77160;SDS011;66135;0.000;0.000;2023-07-31T16:22:16;25.23;;;7.20;;
77160;SDS011;66135;0.000;0.000;2023-07-31T16:24:41;24.05;;;7.60;;
77160;SDS011;66135;0.000;0.000;2023-07-31T16:27:07;19.90;;;7.82;;
77160;SDS011;66135;0.000;0.000;2023-07-31T16:29:32;23.00;;;7.65;;
77160;SDS011;66135;0.000;0.000;2023-07-31T16:31:58;32.10;;;10.63;;
77160;SDS011;66135;0.000;0.000;2023-07-31T16:34:23;28.50;;;9.00;;
77160;SDS011;66135;0.000;0.000;2023-07-31T16:36:49;25.92;;;9.45;;
77160;SDS011;66135;0.000;0.000;2023-07-31T16:39:15;22.67;;;8.70;;
77160;SDS011;66135;0.000;0.000;2023-07-31T16:41:40;23.75;;;8.80;;
77160;SDS011;66135;0.000;0.000;2023-07-31T16:44:06;22.05;;;8.45;;
77160;SDS011;66135;0.000;0.000;2023-07-31T16:46:31;20.85;;;7.65;;
77160;SDS011;66135;0.000;0.000;2023-07-31T16:48:57;24.17;;;9.93;;
77160;SDS011;66135;0.000;0.000;2023-07-31T16:51:23;24.77;;;8.35;;
77160;SDS011;66135;0.000;0.000;2023-07-31T16:53:48;20.13;;;6.75;;
77160;SDS011;66135;0.000;0.000;2023-07-31T16:56:14;25.25;;;8.02;;
77160;SDS011;66135;0.000;0.000;2023-07-31T16:58:40;25.65;;;7.88;;
77160;SDS011;66135;0.000;0.000;2023-07-31T17:01:06;19.90;;;7.20;;
77160;SDS011;66135;0.000;0.000;2023-07-31T17:03:32;23.45;;;7.28;;
77160;SDS011;66135;0.000;0.000;2023-07-31T17:05:57;18.85;;;6.43;;
77160;SDS011;66135;0.000;0.000;2023-07-31T17:08:23;15.90;;;6.65;;
77160;SDS011;66135;0.000;0.000;2023-07-31T17:10:48;21.20;;;6.80;;
77160;SDS011;66135;0.000;0.000;2023-07-31T17:13:14;18.45;;;6.78;;
77160;SDS011;66135;0.000;0.000;2023-07-31T17:15:39;14.15;;;6.30;;
77160;SDS011;66135;0.000;0.000;2023-07-31T17:18:04;14.27;;;5.80;;
77160;SDS011;66135;0.000;0.000;2023-07-31T17:20:30;21.40;;;6.40;;
77160;SDS011;66135;0.000;0.000;2023-07-31T17:22:57;15.18;;;6.97;;
77160;SDS011;66135;0.000;0.000;2023-07-31T17:25:22;13.57;;;5.15;;
77160;SDS011;66135;0.000;0.000;2023-07-31T17:27:48;12.45;;;4.68;;
77160;SDS011;66135;0.000;0.000;2023-07-31T17:30:13;17.35;;;5.75;;
77160;SDS011;66135;0.000;0.000;2023-07-31T17:32:39;13.07;;;4.05;;
77160;SDS011;66135;0.000;0.000;2023-07-31T17:35:04;13.52;;;4.40;;
77160;SDS011;66135;0.000;0.000;2023-07-31T17:37:30;11.73;;;4.43;;
77160;SDS011;66135;0.000;0.000;2023-07-31T17:39:55;14.65;;;4.78;;
77160;SDS011;66135;0.000;0.000;2023-07-31T17:42:21;18.60;;;6.10;;
77160;SDS011;66135;0.000;0.000;2023-07-31T17:44:46;17.23;;;5.30;;
77160;SDS011;66135;0.000;0.000;2023-07-31T17:47:13;14.13;;;4.13;;
77160;SDS011;66135;0.000;0.000;2023-07-31T17:49:38;12.85;;;4.78;;
77160;SDS011;66135;0.000;0.000;2023-07-31T17:52:03;11.85;;;4.75;;
77160;SDS011;66135;0.000;0.000;2023-07-31T17:54:29;8.30;;;4.10;;
77160;SDS011;66135;0.000;0.000;2023-07-31T17:56:55;12.52;;;4.32;;
77160;SDS011;66135;0.000;0.000;2023-07-31T17:59:20;12.32;;;4.32;;
77160;SDS011;66135;0.000;0.000;2023-07-31T18:01:45;12.82;;;5.45;;
77160;SDS011;66135;0.000;0.000;2023-07-31T18:04:12;10.57;;;4.05;;
77160;SDS011;66135;0.000;0.000;2023-07-31T18:06:38;12.55;;;4.35;;
77160;SDS011;66135;0.000;0.000;2023-07-31T18:09:04;10.05;;;4.07;;
77160;SDS011;66135;0.000;0.000;2023-07-31T18:11:29;12.82;;;4.43;;
77160;SDS011;66135;0.000;0.000;2023-07-31T18:13:56;11.98;;;4.60;;
77160;SDS011;66135;0.000;0.000;2023-07-31T18:16:22;11.55;;;4.68;;
77160;SDS011;66135;0.000;0.000;2023-07-31T18:18:47;10.70;;;4.03;;
77160;SDS011;66135;0.000;0.000;2023-07-31T18:21:12;9.88;;;4.13;;
77160;SDS011;66135;0.000;0.000;2023-07-31T18:23:38;9.85;;;4.07;;
77160;SDS011;66135;0.000;0.000;2023-07-31T18:26:03;11.40;;;4.05;;
77160;SDS011;66135;0.000;0.000;2023-07-31T18:28:29;9.50;;;3.80;;
77160;SDS011;66135;0.000;0.000;2023-07-31T18:31:01;14.27;;;4.80;;
77160;SDS011;66135;0.000;0.000;2023-07-31T18:33:27;10.70;;;4.13;;
77160;SDS011;66135;0.000;0.000;2023-07-31T18:35:53;10.50;;;5.03;;
77160;SDS011;66135;0.000;0.000;2023-07-31T18:38:18;9.27;;;3.97;;
77160;SDS011;66135;0.000;0.000;2023-07-31T18:40:44;11.43;;;4.13;;
77160;SDS011;66135;0.000;0.000;2023-07-31T18:43:09;9.98;;;4.10;;
77160;SDS011;66135;0.000;0.000;2023-07-31T18:45:34;11.68;;;4.43;;
77160;SDS011;66135;0.000;0.000;2023-07-31T18:48:00;10.88;;;4.03;;
77160;SDS011;66135;0.000;0.000;2023-07-31T18:50:26;8.55;;;3.95;;
77160;SDS011;66135;0.000;0.000;2023-07-31T18:52:51;10.57;;;4.28;;
77160;SDS011;66135;0.000;0.000;2023-07-31T18:55:17;10.55;;;2.85;;
77160;SDS011;66135;0.000;0.000;2023-07-31T18:57:42;8.05;;;3.00;;
77160;SDS011;66135;0.000;0.000;2023-07-31T19:00:09;11.20;;;3.65;;
77160;SDS011;66135;0.000;0.000;2023-07-31T19:02:35;13.35;;;3.67;;
77160;SDS011;66135;0.000;0.000;2023-07-31T19:05:00;8.77;;;3.55;;
77160;SDS011;66135;0.000;0.000;2023-07-31T19:07:26;7.78;;;2.40;;
77160;SDS011;66135;0.000;0.000;2023-07-31T19:09:51;9.82;;;2.92;;
77160;SDS011;66135;0.000;0.000;2023-07-31T19:12:17;9.20;;;3.53;;
77160;SDS011;66135;0.000;0.000;2023-07-31T19:14:43;9.43;;;3.47;;
77160;SDS011;66135;0.000;0.000;2023-07-31T19:17:08;8.10;;;3.27;;
77160;SDS011;66135;0.000;0.000;2023-07-31T19:21:59;7.97;;;3.43;;
77160;SDS011;66135;0.000;0.000;2023-07-31T19:26:50;11.23;;;4.23;;
77160;SDS011;66135;0.000;0.000;2023-07-31T19:29:16;8.32;;;2.45;;
77160;SDS011;66135;0.000;0.000;2023-07-31T19:31:41;7.75;;;2.97;;
77160;SDS011;66135;0.000;0.000;2023-07-31T19:34:09;6.38;;;2.45;;
77160;SDS011;66135;0.000;0.000;2023-07-31T19:36:35;7.65;;;2.95;;
77160;SDS011;66135;0.000;0.000;2023-07-31T19:39:00;12.93;;;2.97;;
77160;SDS011;66135;0.000;0.000;2023-07-31T19:41:26;8.05;;;3.78;;
77160;SDS011;66135;0.000;0.000;2023-07-31T19:43:52;7.95;;;2.83;;
77160;SDS011;66135;0.000;0.000;2023-07-31T19:46:17;8.60;;;3.42;;
77160;SDS011;66135;0.000;0.000;2023-07-31T19:48:42;6.32;;;2.55;;
77160;SDS011;66135;0.000;0.000;2023-07-31T19:51:08;6.63;;;3.03;;
77160;SDS011;66135;0.000;0.000;2023-07-31T19:53:33;4.75;;;2.30;;
77160;SDS011;66135;0.000;0.000;2023-07-31T19:55:59;6.78;;;2.75;;
77160;SDS011;66135;0.000;0.000;2023-07-31T19:58:25;7.18;;;2.90;;
77160;SDS011;66135;0.000;0.000;2023-07-31T20:00:55;5.63;;;3.15;;
77160;SDS011;66135;0.000;0.000;2023-07-31T20:03:20;8.05;;;1.77;;
77160;SDS011;66135;0.000;0.000;2023-07-31T20:05:45;4.88;;;2.97;;
77160;SDS011;66135;0.000;0.000;2023-07-31T20:08:13;6.80;;;2.97;;
77160;SDS011;66135;0.000;0.000;2023-07-31T20:10:39;5.45;;;2.38;;
77160;SDS011;66135;0.000;0.000;2023-07-31T20:13:05;6.25;;;2.38;;
77160;SDS011;66135;0.000;0.000;2023-07-31T20:15:30;7.03;;;2.80;;
77160;SDS011;66135;0.000;0.000;2023-07-31T20:17:55;7.55;;;3.00;;
77160;SDS011;66135;0.000;0.000;2023-07-31T20:20:22;6.53;;;2.30;;
77160;SDS011;66135;0.000;0.000;2023-07-31T20:22:49;7.35;;;2.80;;
77160;SDS011;66135;0.000;0.000;2023-07-31T20:25:14;6.13;;;2.72;;
77160;SDS011;66135;0.000;0.000;2023-07-31T20:27:40;6.70;;;3.05;;
77160;SDS011;66135;0.000;0.000;2023-07-31T20:30:06;5.40;;;2.60;;
77160;SDS011;66135;0.000;0.000;2023-07-31T20:32:31;5.53;;;2.97;;
77160;SDS011;66135;0.000;0.000;2023-07-31T20:34:57;5.60;;;2.42;;
77160;SDS011;66135;0.000;0.000;2023-07-31T20:37:22;5.43;;;2.83;;
77160;SDS011;66135;0.000;0.000;2023-07-31T20:39:48;7.78;;;2.78;;
77160;SDS011;66135;0.000;0.000;2023-07-31T20:42:13;6.57;;;2.75;;
77160;SDS011;66135;0.000;0.000;2023-07-31T20:44:40;6.93;;;2.92;;
77160;SDS011;66135;0.000;0.000;2023-07-31T20:47:06;5.18;;;2.35;;
77160;SDS011;66135;0.000;0.000;2023-07-31T20:51:57;5.07;;;2.60;;
77160;SDS011;66135;0.000;0.000;2023-07-31T20:54:22;5.25;;;2.22;;
77160;SDS011;66135;0.000;0.000;2023-07-31T20:59:14;4.20;;;2.72;;
77160;SDS011;66135;0.000;0.000;2023-07-31T21:01:39;4.93;;;2.05;;
77160;SDS011;66135;0.000;0.000;2023-07-31T21:04:07;6.07;;;1.98;;
77160;SDS011;66135;0.000;0.000;2023-07-31T21:06:32;3.67;;;0.95;;
77160;SDS011;66135;0.000;0.000;2023-07-31T21:08:58;4.80;;;2.35;;
77160;SDS011;66135;0.000;0.000;2023-07-31T21:11:23;4.18;;;2.10;;
77160;SDS011;66135;0.000;0.000;2023-07-31T21:13:48;6.10;;;2.13;;
77160;SDS011;66135;0.000;0.000;2023-07-31T21:16:15;4.40;;;1.35;;
77160;SDS011;66135;0.000;0.000;2023-07-31T21:18:40;4.70;;;2.20;;
77160;SDS011;66135;0.000;0.000;2023-07-31T21:21:06;3.92;;;2.22;;
77160;SDS011;66135;0.000;0.000;2023-07-31T21:23:31;5.38;;;2.22;;
77160;SDS011;66135;0.000;0.000;2023-07-31T21:25:56;5.53;;;2.40;;
77160;SDS011;66135;0.000;0.000;2023-07-31T21:28:22;6.05;;;2.15;;
77160;SDS011;66135;0.000;0.000;2023-07-31T21:30:47;6.18;;;2.45;;
77160;SDS011;66135;0.000;0.000;2023-07-31T21:33:13;5.68;;;2.03;;
77160;SDS011;66135;0.000;0.000;2023-07-31T21:35:38;4.90;;;2.67;;
77160;SDS011;66135;0.000;0.000;2023-07-31T21:40:29;4.00;;;2.13;;
77160;SDS011;66135;0.000;0.000;2023-07-31T21:42:54;4.35;;;1.67;;
77160;SDS011;66135;0.000;0.000;2023-07-31T21:45:21;4.07;;;2.45;;
77160;SDS011;66135;0.000;0.000;2023-07-31T21:47:47;4.57;;;1.98;;
77160;SDS011;66135;0.000;0.000;2023-07-31T21:50:13;5.03;;;2.72;;
77160;SDS011;66135;0.000;0.000;2023-07-31T21:52:38;6.10;;;2.10;;
77160;SDS011;66135;0.000;0.000;2023-07-31T21:55:04;3.22;;;1.85;;
77160;SDS011;66135;0.000;0.000;2023-07-31T21:57:31;4.35;;;1.77;;
77160;SDS011;66135;0.000;0.000;2023-07-31T21:59:56;3.50;;;1.92;;
77160;SDS011;66135;0.000;0.000;2023-07-31T22:02:22;4.95;;;1.15;;
77160;SDS011;66135;0.000;0.000;2023-07-31T22:04:47;4.80;;;2.00;;
77160;SDS011;66135;0.000;0.000;2023-07-31T22:07:12;4.85;;;2.08;;
77160;SDS011;66135;0.000;0.000;2023-07-31T22:09:38;3.53;;;1.90;;
77160;SDS011;66135;0.000;0.000;2023-07-31T22:12:03;3.92;;;1.48;;
77160;SDS011;66135;0.000;0.000;2023-07-31T22:14:29;3.30;;;1.80;;
77160;SDS011;66135;0.000;0.000;2023-07-31T22:16:55;4.88;;;2.08;;
77160;SDS011;66135;0.000;0.000;2023-07-31T22:19:20;4.32;;;2.20;;
77160;SDS011;66135;0.000;0.000;2023-07-31T22:21:46;4.20;;;1.42;;
77160;SDS011;66135;0.000;0.000;2023-07-31T22:24:12;3.60;;;1.90;;
77160;SDS011;66135;0.000;0.000;2023-07-31T22:26:38;3.15;;;1.73;;
77160;SDS011;66135;0.000;0.000;2023-07-31T22:29:04;2.53;;;1.23;;
77160;SDS011;66135;0.000;0.000;2023-07-31T22:31:29;3.83;;;1.85;;
77160;SDS011;66135;0.000;0.000;2023-07-31T22:33:54;2.85;;;1.58;;
77160;SDS011;66135;0.000;0.000;2023-07-31T22:36:20;2.88;;;1.40;;
77160;SDS011;66135;0.000;0.000;2023-07-31T22:38:45;4.25;;;1.67;;
77160;SDS011;66135;0.000;0.000;2023-07-31T22:41:11;4.00;;;1.58;;
77160;SDS011;66135;0.000;0.000;2023-07-31T22:46:02;4.57;;;1.80;;
77160;SDS011;66135;0.000;0.000;2023-07-31T22:48:27;3.15;;;1.58;;
77160;SDS011;66135;0.000;0.000;2023-07-31T22:50:52;2.33;;;0.63;;
77160;SDS011;66135;0.000;0.000;2023-07-31T22:53:18;2.97;;;1.60;;
77160;SDS011;66135;0.000;0.000;2023-07-31T22:55:43;3.17;;;1.77;;
77160;SDS011;66135;0.000;0.000;2023-07-31T22:58:08;2.88;;;1.83;;
77160;SDS011;66135;0.000;0.000;2023-07-31T23:00:34;2.58;;;0.55;;
77160;SDS011;66135;0.000;0.000;2023-07-31T23:02:59;3.80;;;1.60;;
77160;SDS011;66135;0.000;0.000;2023-07-31T23:05:25;3.00;;;1.60;;
77160;SDS011;66135;0.000;0.000;2023-07-31T23:07:50;3.13;;;1.58;;
77160;SDS011;66135;0.000;0.000;2023-07-31T23:10:15;3.35;;;1.77;;
77160;SDS011;66135;0.000;0.000;2023-07-31T23:12:41;3.17;;;0.55;;
77160;SDS011;66135;0.000;0.000;2023-07-31T23:15:07;2.80;;;1.45;;
77160;SDS011;66135;0.000;0.000;2023-07-31T23:17:32;3.55;;;1.65;;
77160;SDS011;66135;0.000;0.000;2023-07-31T23:19:58;3.95;;;0.70;;
77160;SDS011;66135;0.000;0.000;2023-07-31T23:22:23;2.15;;;1.42;;
77160;SDS011;66135;0.000;0.000;2023-07-31T23:24:48;1.60;;;1.38;;
77160;SDS011;66135;0.000;0.000;2023-07-31T23:27:14;2.35;;;1.63;;
77160;SDS011;66135;0.000;0.000;2023-07-31T23:29:39;3.25;;;1.58;;
77160;SDS011;66135;0.000;0.000;2023-07-31T23:32:05;2.22;;;0.93;;
77160;SDS011;66135;0.000;0.000;2023-07-31T23:34:31;2.22;;;1.75;;
77160;SDS011;66135;0.000;0.000;2023-07-31T23:36:57;2.53;;;1.30;;
77160;SDS011;66135;0.000;0.000;2023-07-31T23:39:22;1.88;;;1.27;;
77160;SDS011;66135;0.000;0.000;2023-07-31T23:41:47;1.90;;;1.08;;
77160;SDS011;66135;0.000;0.000;2023-07-31T23:44:13;2.33;;;1.23;;
77160;SDS011;66135;0.000;0.000;2023-07-31T23:46:39;1.67;;;1.20;;
77160;SDS011;66135;0.000;0.000;2023-07-31T23:49:11;3.03;;;1.65;;